Time;durP1;ratioP1;P1;durP2;ratioP2;P2;SDS_P1;SDS_P2;PMS_P1;PMS_P2;Temp;Humidity;BMP_temperature;BMP_pressure;BME280_temperature;BME280_humidity;BME280_pressure;Samples;Min_cycle;Max_cycle;Signal;HPM_P1;HPM_P2
2022/07/10 00:01:12;;;;;;;;;;;;;;;18.99;100.00;99895.41;5057036;28;19999;-40
2022/07/10 00:03:38;;;;;;;;;;;;;;;18.65;100.00;99891.88;5056006;28;20010;-40
2022/07/10 00:06:04;;;;;;;;;;;;;;;19.09;100.00;99885.31;5056845;28;19966;-39
2022/07/10 00:08:29;;;;;;;;;;;;;;;18.63;100.00;99896.34;5057273;28;20286;-39
2022/07/10 00:10:54;;;;;;;;;;;;;;;18.58;100.00;99893.97;5056606;28;19927;-40
2022/07/10 00:13:19;;;;;;;;;;;;;;;18.06;100.00;99896.53;5057379;28;20389;-40
2022/07/10 00:15:45;;;;;;;;;;;;;;;18.74;100.00;99894.03;5056086;28;19920;-40
2022/07/10 00:18:10;;;;;;;;;;;;;;;18.72;100.00;99898.47;5056423;28;20518;-39
2022/07/10 00:20:36;;;;;;;;;;;;;;;18.84;100.00;99896.19;5055931;28;19916;-40
2022/07/10 00:23:01;;;;;;;;;;;;;;;19.24;100.00;99884.50;5056239;28;19916;-39
2022/07/10 00:25:26;;;;;;;;;;;;;;;19.46;100.00;99878.97;5056565;28;20421;-40
2022/07/10 00:27:51;;;;;;;;;;;;;;;18.64;100.00;99889.38;5057277;28;19927;-39
2022/07/10 00:30:17;;;;;;;;;;;;;;;18.63;100.00;99880.69;5055747;28;20826;-39
2022/07/10 00:32:42;;;;;;;;;;;;;;;18.44;100.00;99882.56;5055631;28;19944;-40
2022/07/10 00:35:07;;;;;;;;;;;;;;;18.19;100.00;99894.19;5056637;28;19921;-40
2022/07/10 00:37:33;;;;;;;;;;;;;;;17.94;100.00;99895.38;5055943;28;20589;-40
2022/07/10 00:39:59;;;;;;;;;;;;;;;18.29;100.00;99890.22;5055308;28;19916;-40
2022/07/10 00:42:25;;;;;;;;;;;;;;;18.35;100.00;99895.13;5055763;28;20670;-40
2022/07/10 00:44:50;;;;;;;;;;;;;;;18.62;100.00;99886.00;5057294;28;19916;-40
2022/07/10 00:47:19;;;;;;;;;;;;;;;18.30;100.00;99885.84;5054678;28;19916;-40
2022/07/10 00:49:44;;;;;;;;;;;;;;;18.33;100.00;99880.47;5055318;28;20336;-40
2022/07/10 00:52:10;;;;;;;;;;;;;;;18.27;100.00;99879.03;5056357;28;19916;-39
2022/07/10 00:54:36;;;;;;;;;;;;;;;18.34;100.00;99888.22;5056368;28;19928;-40
2022/07/10 00:57:02;;;;;;;;;;;;;;;17.98;100.00;99888.28;5055142;28;20094;-40
2022/07/10 00:59:27;;;;;;;;;;;;;;;18.23;100.00;99890.53;5053972;28;20399;-40
2022/07/10 01:01:52;;;;;;;;;;;;;;;18.13;100.00;99881.44;5055930;28;19986;-40
2022/07/10 01:04:18;;;;;;;;;;;;;;;18.32;100.00;99884.84;5055410;28;20632;-40
2022/07/10 01:06:43;;;;;;;;;;;;;;;18.57;100.00;99879.25;5054914;28;19970;-40
2022/07/10 01:09:08;;;;;;;;;;;;;;;18.48;100.00;99868.44;5055070;28;19982;-40
2022/07/10 01:11:34;;;;;;;;;;;;;;;18.41;100.00;99877.50;5055294;28;19916;-40
2022/07/10 01:13:59;;;;;;;;;;;;;;;18.55;100.00;99861.97;5056106;28;19921;-40
2022/07/10 01:16:25;;;;;;;;;;;;;;;18.58;100.00;99865.25;5054938;28;19920;-40
2022/07/10 01:18:50;;;;;;;;;;;;;;;18.95;100.00;99857.31;5055815;28;19920;-40
2022/07/10 01:21:24;;;;;;;;;;;;;;;18.98;100.00;99860.63;5055376;28;19995;-40
2022/07/10 01:23:50;;;;;;;;;;;;;;;19.07;100.00;99866.25;5056440;28;19927;-40
2022/07/10 01:26:15;;;;;;;;;;;;;;;18.78;100.00;99860.81;5056020;28;19917;-40
2022/07/10 01:28:40;;;;;;;;;;;;;;;19.03;100.00;99855.16;5055949;28;20118;-40
2022/07/10 01:31:05;;;;;;;;;;;;;;;19.38;100.00;99841.94;5053859;28;19920;-40
2022/07/10 01:33:31;;;;;;;;;;;;;;;18.72;100.00;99855.88;5055557;28;19916;-40
2022/07/10 01:35:56;;;;;;;;;;;;;;;18.18;100.00;99856.03;5054808;28;19946;-40
2022/07/10 01:38:21;;;;;;;;;;;;;;;18.04;100.00;99853.22;5055627;28;19950;-40
2022/07/10 01:40:46;;;;;;;;;;;;;;;18.05;100.00;99854.94;5054652;28;19923;-40
2022/07/10 01:43:11;;;;;;;;;;;;;;;18.19;100.00;99848.09;5054871;28;20022;-40
2022/07/10 01:45:37;;;;;;;;;;;;;;;18.03;100.00;99846.34;5055864;28;19955;-40
2022/07/10 01:48:02;;;;;;;;;;;;;;;18.01;100.00;99841.19;5056114;28;20301;-40
2022/07/10 01:50:27;;;;;;;;;;;;;;;17.75;100.00;99850.25;5055557;28;19916;-40
2022/07/10 01:52:53;;;;;;;;;;;;;;;18.09;100.00;99843.44;5054979;28;20397;-40
2022/07/10 01:55:18;;;;;;;;;;;;;;;18.16;100.00;99843.06;5055497;28;19920;-39
2022/07/10 01:57:43;;;;;;;;;;;;;;;18.10;100.00;99843.34;5055449;28;19999;-39
2022/07/10 02:00:09;;;;;;;;;;;;;;;17.85;100.00;99843.72;5054343;28;19978;-40
2022/07/10 02:02:34;;;;;;;;;;;;;;;18.03;100.00;99841.97;5055336;28;19927;-40
2022/07/10 02:04:59;;;;;;;;;;;;;;;17.50;100.00;99841.00;5054633;28;19917;-39
2022/07/10 02:07:26;;;;;;;;;;;;;;;17.68;100.00;99836.69;5055298;28;20282;-40
2022/07/10 02:09:51;;;;;;;;;;;;;;;17.68;100.00;99823.66;5054884;28;19920;-40
2022/07/10 02:12:16;;;;;;;;;;;;;;;17.71;100.00;99830.47;5054823;28;19928;-40
2022/07/10 02:14:42;;;;;;;;;;;;;;;17.95;100.00;99824.13;5055125;28;20898;-39
2022/07/10 02:17:07;;;;;;;;;;;;;;;18.07;100.00;99822.66;5054877;28;19917;-40
2022/07/10 02:19:32;;;;;;;;;;;;;;;18.09;100.00;99831.25;5054903;28;20263;-44
2022/07/10 02:21:58;;;;;;;;;;;;;;;17.86;100.00;99821.97;5054675;28;19971;-40
2022/07/10 02:24:23;;;;;;;;;;;;;;;17.97;100.00;99832.69;5055068;28;19917;-40
2022/07/10 02:26:49;;;;;;;;;;;;;;;17.85;100.00;99827.22;5054324;28;19916;-40
2022/07/10 02:29:14;;;;;;;;;;;;;;;17.56;100.00;99827.69;5054661;28;19920;-40
2022/07/10 02:31:42;;;;;;;;;;;;;;;17.67;100.00;99823.72;5052566;28;20415;-40
2022/07/10 02:34:08;;;;;;;;;;;;;;;17.56;100.00;99816.41;5055441;28;20401;-40
2022/07/10 02:36:33;;;;;;;;;;;;;;;17.39;100.00;99817.22;5054418;28;19946;-40
2022/07/10 02:38:59;;;;;;;;;;;;;;;17.44;100.00;99812.63;5054256;28;19960;-40
2022/07/10 02:41:24;;;;;;;;;;;;;;;17.38;100.00;99812.94;5054140;28;19947;-40
2022/07/10 02:43:50;;;;;;;;;;;;;;;17.05;100.00;99810.97;5052941;28;20005;-40
2022/07/10 02:46:15;;;;;;;;;;;;;;;17.15;100.00;99806.19;5054701;28;20088;-40
2022/07/10 02:48:40;;;;;;;;;;;;;;;17.23;100.00;99803.25;5050434;28;19920;-40
2022/07/10 02:51:05;;;;;;;;;;;;;;;17.45;100.00;99798.72;5053554;28;19916;-40
2022/07/10 02:53:31;;;;;;;;;;;;;;;17.26;100.00;99813.50;5054374;28;19927;-40
2022/07/10 02:55:56;;;;;;;;;;;;;;;17.19;100.00;99801.69;5054287;28;19926;-40
2022/07/10 02:58:21;;;;;;;;;;;;;;;17.53;100.00;99801.78;5054348;28;19968;-40
2022/07/10 03:00:46;;;;;;;;;;;;;;;17.56;100.00;99801.66;5054040;28;19916;-40
2022/07/10 03:03:12;;;;;;;;;;;;;;;17.94;100.00;99798.13;5054972;28;19947;-40
2022/07/10 03:05:37;;;;;;;;;;;;;;;17.66;100.00;99796.00;5052950;28;19951;-39
2022/07/10 03:08:02;;;;;;;;;;;;;;;17.55;100.00;99799.94;5055083;28;19948;-39
2022/07/10 03:10:27;;;;;;;;;;;;;;;17.53;100.00;99793.13;5051855;28;19916;-40
2022/07/10 03:12:53;;;;;;;;;;;;;;;17.37;100.00;99795.63;5057358;28;20392;-40
2022/07/10 03:15:18;;;;;;;;;;;;;;;17.58;100.00;99798.13;5058347;28;20645;-40
2022/07/10 03:17:44;;;;;;;;;;;;;;;17.88;100.00;99794.06;5057542;28;20396;-39
2022/07/10 03:20:09;;;;;;;;;;;;;;;17.72;100.00;99800.91;5057034;28;19916;-39
2022/07/10 03:22:34;;;;;;;;;;;;;;;17.60;100.00;99798.91;5057608;28;19924;-40
2022/07/10 03:25:00;;;;;;;;;;;;;;;17.52;100.00;99805.31;5057569;28;19923;-40
2022/07/10 03:27:25;;;;;;;;;;;;;;;17.44;100.00;99790.97;5057223;28;20316;-40
2022/07/10 03:29:50;;;;;;;;;;;;;;;17.37;100.00;99793.03;5056877;28;19943;-40
2022/07/10 03:32:16;;;;;;;;;;;;;;;17.54;100.00;99785.25;5056749;28;19975;-39
2022/07/10 03:34:41;;;;;;;;;;;;;;;17.63;100.00;99781.38;5057531;28;20027;-40
2022/07/10 03:37:06;;;;;;;;;;;;;;;17.40;100.00;99792.03;5056755;28;19951;-39
2022/07/10 03:39:32;;;;;;;;;;;;;;;17.69;100.00;99790.63;5056752;28;20362;-40
2022/07/10 03:41:57;;;;;;;;;;;;;;;17.59;100.00;99789.41;5057406;28;19920;-40
2022/07/10 03:44:23;;;;;;;;;;;;;;;17.33;100.00;99799.28;5056524;28;20289;-40
2022/07/10 03:46:48;;;;;;;;;;;;;;;17.61;100.00;99790.16;5056342;28;19916;-40
2022/07/10 03:49:13;;;;;;;;;;;;;;;17.36;100.00;99809.56;5056986;28;20787;-40
2022/07/10 03:51:38;;;;;;;;;;;;;;;16.73;100.00;99810.63;5057302;28;20331;-40
2022/07/10 03:54:03;;;;;;;;;;;;;;;17.39;100.00;99813.78;5057428;28;19928;-39
2022/07/10 03:59:13;;;;;;;;;;;;;;;17.40;100.00;99812.84;5055179;28;20034;-39
2022/07/10 04:01:38;;;;;;;;;;;;;;;17.64;100.00;99805.66;5057042;28;19938;-40
2022/07/10 04:04:03;;;;;;;;;;;;;;;16.79;100.00;99816.50;5056752;28;19916;-39
2022/07/10 04:06:28;;;;;;;;;;;;;;;17.28;100.00;99809.06;5056082;28;19920;-39
2022/07/10 04:08:54;;;;;;;;;;;;;;;17.46;100.00;99810.81;5056312;28;19924;-40
2022/07/10 04:11:19;;;;;;;;;;;;;;;16.87;100.00;99804.84;5056474;28;19916;-39
2022/07/10 04:13:44;;;;;;;;;;;;;;;16.81;100.00;99809.47;5056113;28;19916;-39
2022/07/10 04:16:13;;;;;;;;;;;;;;;17.14;100.00;99805.34;5057289;28;19964;-39
2022/07/10 04:18:41;;;;;;;;;;;;;;;17.09;100.00;99803.88;5056482;28;20002;-39
2022/07/10 04:21:06;;;;;;;;;;;;;;;17.05;100.00;99804.94;5054721;28;19920;-40
2022/07/10 04:23:34;;;;;;;;;;;;;;;17.27;100.00;99802.19;5055604;28;19927;-40
2022/07/10 04:26:00;;;;;;;;;;;;;;;17.29;100.00;99800.38;5056436;28;20520;-40
2022/07/10 04:28:25;;;;;;;;;;;;;;;17.03;100.00;99807.59;5055630;28;19965;-40
2022/07/10 04:30:51;;;;;;;;;;;;;;;17.33;100.00;99807.97;5054788;28;19920;-39
2022/07/10 04:33:16;;;;;;;;;;;;;;;16.97;100.00;99812.22;5055001;28;19916;-40
2022/07/10 04:35:41;;;;;;;;;;;;;;;16.76;100.00;99814.00;5055569;28;20015;-40
2022/07/10 04:38:06;;;;;;;;;;;;;;;17.09;100.00;99815.13;5056903;28;19961;-40
2022/07/10 04:40:32;;;;;;;;;;;;;;;16.73;100.00;99810.63;5055679;28;19916;-40
2022/07/10 04:42:57;;;;;;;;;;;;;;;16.66;100.00;99809.22;5056443;28;20439;-39
2022/07/10 04:45:22;;;;;;;;;;;;;;;17.09;100.00;99796.06;5056321;28;19916;-39
2022/07/10 04:47:48;;;;;;;;;;;;;;;16.94;100.00;99802.81;5055856;28;19924;-39
2022/07/10 04:50:13;;;;;;;;;;;;;;;17.33;100.00;99804.47;5054459;28;19917;-40
2022/07/10 04:52:38;;;;;;;;;;;;;;;16.82;100.00;99808.59;5056400;28;19931;-39
2022/07/10 04:55:04;;;;;;;;;;;;;;;17.59;100.00;99805.88;5056227;28;19966;-40
2022/07/10 04:57:30;;;;;;;;;;;;;;;17.70;100.00;99800.16;5056075;28;19924;-40
2022/07/10 04:59:56;;;;;;;;;;;;;;;17.34;100.00;99800.97;5055552;28;20074;-39
2022/07/10 05:02:22;;;;;;;;;;;;;;;17.07;100.00;99809.16;5056114;28;20066;-39
2022/07/10 05:04:47;;;;;;;;;;;;;;;17.39;100.00;99804.22;5055754;28;20385;-39
2022/07/10 05:07:14;;;;;;;;;;;;;;;17.23;100.00;99806.69;5055422;28;19916;-40
2022/07/10 05:09:39;;;;;;;;;;;;;;;17.45;100.00;99801.31;5050680;28;19924;-40
2022/07/10 05:12:05;;;;;;;;;;;;;;;17.43;100.00;99810.13;5049153;28;19925;-40
2022/07/10 05:14:30;;;;;;;;;;;;;;;17.62;100.00;99812.69;5055261;28;20815;-40
2022/07/10 05:16:55;;;;;;;;;;;;;;;17.73;100.00;99808.63;5053416;28;20661;-40
2022/07/10 05:19:20;;;;;;;;;;;;;;;17.65;100.00;99810.78;5054120;28;19916;-40
2022/07/10 05:21:46;;;;;;;;;;;;;;;17.27;100.00;99816.03;5054699;28;19923;-40
2022/07/10 05:24:11;;;;;;;;;;;;;;;17.32;100.00;99813.22;5054868;28;19926;-40
2022/07/10 05:26:36;;;;;;;;;;;;;;;17.56;100.00;99816.41;5054778;28;19916;-40
2022/07/10 05:29:01;;;;;;;;;;;;;;;16.86;100.00;99812.75;5054740;28;19923;-40
2022/07/10 05:31:27;;;;;;;;;;;;;;;17.14;100.00;99802.75;5053631;28;19963;-40
2022/07/10 05:33:52;;;;;;;;;;;;;;;16.96;100.00;99803.59;5053954;28;19917;-40
2022/07/10 05:36:17;;;;;;;;;;;;;;;16.78;100.00;99809.59;5054567;28;19959;-40
2022/07/10 05:38:43;;;;;;;;;;;;;;;16.58;100.00;99813.06;5055169;28;19928;-40
2022/07/10 05:41:08;;;;;;;;;;;;;;;17.19;100.00;99806.91;5053888;28;19916;-40
2022/07/10 05:43:34;;;;;;;;;;;;;;;17.32;100.00;99813.22;5054959;28;19920;-40
2022/07/10 05:45:59;;;;;;;;;;;;;;;17.03;100.00;99807.59;5054477;28;19916;-40
2022/07/10 05:48:24;;;;;;;;;;;;;;;17.12;100.00;99807.16;5054830;28;19916;-40
2022/07/10 05:50:49;;;;;;;;;;;;;;;17.02;100.00;99812.88;5053723;28;19912;-40
2022/07/10 05:53:15;;;;;;;;;;;;;;;17.33;100.00;99809.69;5054545;28;19935;-40
2022/07/10 05:55:40;;;;;;;;;;;;;;;17.04;100.00;99814.50;5054229;28;20022;-40
2022/07/10 05:58:05;;;;;;;;;;;;;;;17.10;100.00;99805.56;5054195;28;20285;-40
2022/07/10 06:00:30;;;;;;;;;;;;;;;17.67;100.00;99802.88;5053180;28;19916;-40
2022/07/10 06:02:56;;;;;;;;;;;;;;;17.39;100.00;99809.41;5053735;28;20015;-40
2022/07/10 06:05:21;;;;;;;;;;;;;;;16.94;100.00;99802.81;5053847;28;19947;-40
2022/07/10 06:07:46;;;;;;;;;;;;;;;17.10;100.00;99809.00;5053855;28;19979;-40
2022/07/10 06:10:12;;;;;;;;;;;;;;;17.63;100.00;99806.56;5053639;28;19923;-40
2022/07/10 06:12:37;;;;;;;;;;;;;;;17.33;100.00;99807.09;5053240;28;20079;-40
2022/07/10 06:15:03;;;;;;;;;;;;;;;17.65;100.00;99807.31;5054140;28;19925;-40
2022/07/10 06:17:28;;;;;;;;;;;;;;;16.88;100.00;99827.38;5053382;28;19916;-40
2022/07/10 06:19:54;;;;;;;;;;;;;;;17.84;100.00;99813.38;5053376;28;19924;-40
2022/07/10 06:22:31;;;;;;;;;;;;;;;17.31;100.00;99817.59;5053604;28;20643;-40
2022/07/10 06:24:57;;;;;;;;;;;;;;;17.38;100.00;99818.16;5053763;28;19916;-40
2022/07/10 06:27:22;;;;;;;;;;;;;;;18.14;100.00;99818.81;5053169;28;20492;-40
2022/07/10 06:29:48;;;;;;;;;;;;;;;18.23;100.00;99827.94;5052582;28;20462;-40
2022/07/10 06:32:13;;;;;;;;;;;;;;;18.00;100.00;99820.44;5052349;28;19948;-40
2022/07/10 06:34:38;;;;;;;;;;;;;;;17.62;100.00;99820.50;5053269;28;20013;-40
2022/07/10 06:37:04;;;;;;;;;;;;;;;17.89;100.00;99821.81;5053505;28;19923;-40
2022/07/10 06:39:33;;;;;;;;;;;;;;;17.76;100.00;99821.50;5052151;28;19952;-40
2022/07/10 06:42:00;;;;;;;;;;;;;;;18.39;100.00;99821.03;5051950;28;19923;-40
2022/07/10 06:44:25;;;;;;;;;;;;;;;18.07;100.00;99816.59;5053268;28;20047;-40
2022/07/10 06:49:34;;;;;;;;;;;;;;;18.48;100.00;99818.88;5052405;28;20024;-40
2022/07/10 06:51:59;;;;;;;;;;;;;;;17.77;100.00;99817.16;5053838;28;20313;-40
2022/07/10 06:54:24;;;;;;;;;;;;;;;18.44;100.00;99809.53;5052981;28;19972;-40
2022/07/10 06:56:50;;;;;;;;;;;;;;;18.36;100.00;99815.16;5053554;28;20031;-40
2022/07/10 06:59:15;;;;;;;;;;;;;;;17.96;100.00;99817.97;5052503;28;19924;-40
2022/07/10 07:01:40;;;;;;;;;;;;;;;18.02;100.00;99813.38;5053375;28;19916;-40
2022/07/10 07:04:05;;;;;;;;;;;;;;;18.19;100.00;99816.81;5053358;28;20491;-40
2022/07/10 07:06:30;;;;;;;;;;;;;;;18.92;100.00;99818.34;5053444;28;20262;-40
2022/07/10 07:08:56;;;;;;;;;;;;;;;18.58;100.00;99807.03;5052702;28;19916;-40
2022/07/10 07:11:21;;;;;;;;;;;;;;;18.60;100.00;99810.41;5053623;28;20041;-40
2022/07/10 07:13:46;;;;;;;;;;;;;;;18.26;100.00;99822.56;5053676;28;19916;-40
2022/07/10 07:16:17;;;;;;;;;;;;;;;18.68;100.00;99818.69;5053018;28;19921;-40
2022/07/10 07:18:49;;;;;;;;;;;;;;;19.05;100.00;99821.16;5053020;28;20003;-40
2022/07/10 07:24:04;;;;;;;;;;;;;;;18.95;100.00;99823.38;5050549;28;19916;-40
2022/07/10 07:26:29;;;;;;;;;;;;;;;18.51;100.00;99834.38;5052329;28;19967;-40
2022/07/10 07:28:54;;;;;;;;;;;;;;;19.11;100.00;99824.28;5051162;28;20337;-40
2022/07/10 07:31:19;;;;;;;;;;;;;;;19.36;100.00;99826.38;5051649;28;19923;-40
2022/07/10 07:33:45;;;;;;;;;;;;;;;19.15;100.00;99823.16;5053321;28;19920;-40
2022/07/10 07:36:10;;;;;;;;;;;;;;;19.99;100.00;99822.84;5051800;28;19920;-40
2022/07/10 07:38:35;;;;;;;;;;;;;;;19.89;100.00;99824.31;5053333;28;19927;-40
2022/07/10 07:41:01;;;;;;;;;;;;;;;19.82;100.00;99813.38;5051646;28;19947;-40
2022/07/10 07:43:26;;;;;;;;;;;;;;;20.36;100.00;99812.84;5052975;28;19916;-40
2022/07/10 07:45:51;;;;;;;;;;;;;;;20.49;100.00;99812.97;5051057;28;20389;-40
2022/07/10 07:48:16;;;;;;;;;;;;;;;20.88;100.00;99803.63;5053152;28;19916;-56
2022/07/10 07:50:42;;;;;;;;;;;;;;;19.92;100.00;99818.06;5051703;28;20016;-55
2022/07/10 07:53:07;;;;;;;;;;;;;;;20.47;100.00;99826.13;5053253;28;19917;-56
2022/07/10 07:55:33;;;;;;;;;;;;;;;20.56;100.00;99821.28;5052869;28;19921;-56
2022/07/10 07:57:58;;;;;;;;;;;;;;;21.38;100.00;99806.63;5054330;28;20021;-40
2022/07/10 08:00:24;;;;;;;;;;;;;;;21.51;100.00;99807.56;5055850;28;20526;-40
2022/07/10 08:02:50;;;;;;;;;;;;;;;20.48;100.00;99822.59;5056019;28;19920;-40
2022/07/10 08:05:15;;;;;;;;;;;;;;;20.08;100.00;99818.88;5055751;28;19920;-40
2022/07/10 08:07:41;;;;;;;;;;;;;;;20.41;100.00;99813.44;5056415;28;20377;-41
2022/07/10 08:10:07;;;;;;;;;;;;;;;20.00;100.00;99815.84;5055406;28;19970;-41
2022/07/10 08:12:33;;;;;;;;;;;;;;;20.61;100.00;99806.16;5056600;28;20377;-40
2022/07/10 08:14:58;;;;;;;;;;;;;;;20.52;100.00;99815.38;5055188;28;19931;-40
2022/07/10 08:17:24;;;;;;;;;;;;;;;20.63;100.00;99804.31;5056674;28;19916;-40
2022/07/10 08:19:49;;;;;;;;;;;;;;;21.11;100.00;99799.59;5055084;28;19966;-40
2022/07/10 08:22:14;;;;;;;;;;;;;;;21.35;100.00;99798.94;5056528;28;19916;-40
2022/07/10 08:24:40;;;;;;;;;;;;;;;19.83;100.00;99811.59;5055725;28;20273;-41
2022/07/10 08:27:06;;;;;;;;;;;;;;;19.99;100.00;99814.16;5056237;28;20898;-40
2022/07/10 08:29:31;;;;;;;;;;;;;;;19.87;100.00;99804.44;5055099;28;19923;-41
2022/07/10 08:31:56;;;;;;;;;;;;;;;20.44;100.00;99800.16;5055932;28;19916;-40
2022/07/10 08:34:22;;;;;;;;;;;;;;;20.09;100.00;99802.22;5055969;28;20385;-40
2022/07/10 08:36:47;;;;;;;;;;;;;;;19.81;100.00;99803.00;5055476;28;20512;-41
2022/07/10 08:39:12;;;;;;;;;;;;;;;20.28;100.00;99799.38;5055622;28;19913;-40
2022/07/10 08:41:38;;;;;;;;;;;;;;;20.34;100.00;99793.78;5054858;28;19917;-40
2022/07/10 08:44:03;;;;;;;;;;;;;;;20.97;100.00;99794.38;5054371;28;19920;-40
2022/07/10 08:46:28;;;;;;;;;;;;;;;20.63;100.00;99804.31;5053671;28;19916;-41
2022/07/10 08:48:54;;;;;;;;;;;;;;;21.10;100.00;99797.91;5054734;28;20271;-40
2022/07/10 08:51:52;;;;;;;;;;;;;;;20.81;100.00;99797.94;5054860;28;19921;-41
2022/07/10 08:54:17;;;;;;;;;;;;;;;19.78;100.00;99800.56;5031515;28;19923;-40
2022/07/10 08:56:42;;;;;;;;;;;;;;;20.43;100.00;99803.69;5055072;28;19916;-41
2022/07/10 08:59:08;;;;;;;;;;;;;;;20.90;100.00;99793.91;5054021;28;19920;-41
2022/07/10 09:01:33;;;;;;;;;;;;;;;19.56;100.00;99804.34;5054070;28;19948;-41
2022/07/10 09:03:59;;;;;;;;;;;;;;;19.12;100.00;99810.28;5055663;28;20003;-40
2022/07/10 09:06:24;;;;;;;;;;;;;;;19.78;100.00;99811.84;5055409;28;19958;-40
2022/07/10 09:09:02;;;;;;;;;;;;;;;19.38;100.00;99811.44;5055034;28;19963;-40
2022/07/10 09:11:29;;;;;;;;;;;;;;;20.97;100.00;99810.09;5056436;28;20429;-40
2022/07/10 09:13:58;;;;;;;;;;;;;;;21.17;100.00;99814.09;5056244;28;19912;-40
2022/07/10 09:16:27;;;;;;;;;;;;;;;20.45;100.00;99820.13;5056693;28;20451;-40
2022/07/10 09:18:53;;;;;;;;;;;;;;;20.44;100.00;99820.25;5054460;28;19912;-40
2022/07/10 09:21:18;;;;;;;;;;;;;;;20.90;100.00;99812.25;5056421;28;20021;-40
2022/07/10 09:23:44;;;;;;;;;;;;;;;20.64;100.00;99822.53;5054889;28;19916;-40
2022/07/10 09:26:09;;;;;;;;;;;;;;;20.81;100.00;99805.78;5056098;28;19924;-40
2022/07/10 09:28:34;;;;;;;;;;;;;;;20.92;100.00;99806.94;5056644;28;19992;-41
2022/07/10 09:30:59;;;;;;;;;;;;;;;20.29;100.00;99816.75;5055962;28;20018;-40
2022/07/10 09:33:25;;;;;;;;;;;;;;;20.00;100.00;99832.41;5055638;28;19959;-40
2022/07/10 09:36:13;;;;;;;;;;;;;;;20.39;100.00;99820.53;5055866;28;19988;-40
2022/07/10 09:38:44;;;;;;;;;;;;;;;19.92;100.00;99808.44;5040623;28;19923;-40
2022/07/10 09:41:21;;;;;;;;;;;;;;;20.95;100.00;99798.88;5054597;28;20370;-40
2022/07/10 09:43:49;;;;;;;;;;;;;;;21.40;100.00;99804.75;5053907;28;20742;-40
2022/07/10 09:46:15;;;;;;;;;;;;;;;20.42;100.00;99811.66;5055656;28;20438;-40
2022/07/10 09:48:41;;;;;;;;;;;;;;;19.47;100.00;99820.53;5055601;28;19960;-40
2022/07/10 09:51:08;;;;;;;;;;;;;;;20.31;100.00;99812.28;5055136;28;19978;-41
2022/07/10 09:53:34;;;;;;;;;;;;;;;21.21;100.00;99800.69;5054663;28;19942;-40
2022/07/10 09:55:59;;;;;;;;;;;;;;;20.53;100.00;99814.47;5053487;28;19921;-41
2022/07/10 09:58:25;;;;;;;;;;;;;;;19.71;100.00;99825.38;5053174;28;19920;-40
2022/07/10 10:00:50;;;;;;;;;;;;;;;20.33;100.00;99818.25;5052751;28;19920;-40
2022/07/10 10:03:15;;;;;;;;;;;;;;;20.24;100.00;99818.81;5055937;28;20037;-40
2022/07/10 10:05:43;;;;;;;;;;;;;;;20.26;100.00;99811.72;5053180;28;20167;-40
2022/07/10 10:08:27;;;;;;;;;;;;;;;20.18;100.00;99808.69;5053783;28;19916;-40
2022/07/10 10:10:53;;;;;;;;;;;;;;;20.54;100.00;99807.44;5054036;28;19917;-40
2022/07/10 10:13:19;;;;;;;;;;;;;;;19.95;100.00;99820.50;5053901;28;19916;-40
2022/07/10 10:15:45;;;;;;;;;;;;;;;20.03;100.00;99810.44;5055466;28;19920;-40
2022/07/10 10:18:10;;;;;;;;;;;;;;;20.97;100.00;99799.63;5055813;28;20440;-40
2022/07/10 10:20:41;;;;;;;;;;;;;;;20.40;100.00;99803.88;5052777;28;19966;-40
2022/07/10 10:23:10;;;;;;;;;;;;;;;20.19;100.00;99803.38;5055820;28;19966;-40
2022/07/10 10:25:35;;;;;;;;;;;;;;;20.88;100.00;99788.75;5055346;28;19917;-40
2022/07/10 10:28:01;;;;;;;;;;;;;;;20.53;100.00;99803.16;5055194;28;19965;-40
2022/07/10 10:30:26;;;;;;;;;;;;;;;21.51;100.00;99792.69;5053130;28;19920;-40
2022/07/10 10:32:51;;;;;;;;;;;;;;;21.89;100.00;99783.22;5053546;28;19916;-40
2022/07/10 10:35:35;;;;;;;;;;;;;;;21.00;100.00;99776.69;5055508;28;20019;-40
2022/07/10 10:38:00;;;;;;;;;;;;;;;22.56;100.00;99775.22;5055180;28;20353;-40
2022/07/10 10:40:33;;;;;;;;;;;;;;;21.16;100.00;99787.03;5055402;28;19921;-40
2022/07/10 10:42:58;;;;;;;;;;;;;;;21.06;100.00;99796.41;5053418;28;20532;-40
2022/07/10 10:45:35;;;;;;;;;;;;;;;21.88;100.00;99790.25;5055874;28;20015;-40
2022/07/10 10:48:00;;;;;;;;;;;;;;;19.75;100.00;99791.13;5055323;28;19920;-40
2022/07/10 10:50:42;;;;;;;;;;;;;;;20.69;100.00;99796.09;5054780;28;19974;-40
2022/07/10 10:53:13;;;;;;;;;;;;;;;21.58;100.00;99782.63;5055551;28;19927;-40
2022/07/10 10:55:38;;;;;;;;;;;;;;;21.41;100.00;99780.25;5056123;28;20047;-40
2022/07/10 10:58:17;;;;;;;;;;;;;;;20.35;100.00;99805.94;5055898;28;20486;-40
2022/07/10 11:00:43;;;;;;;;;;;;;;;20.46;100.00;99798.28;5054267;28;20016;-40
2022/07/10 11:03:12;;;;;;;;;;;;;;;21.03;100.00;99786.16;5054450;28;20906;-40
2022/07/10 11:05:38;;;;;;;;;;;;;;;20.82;100.00;99794.41;5053874;28;19923;-40
2022/07/10 11:08:03;;;;;;;;;;;;;;;20.91;100.00;99789.50;5055748;28;19916;-41
2022/07/10 11:10:29;;;;;;;;;;;;;;;21.96;100.00;99781.03;5053564;28;19921;-40
2022/07/10 11:12:56;;;;;;;;;;;;;;;20.33;100.00;99804.34;5054850;28;19920;-41
2022/07/10 11:15:21;;;;;;;;;;;;;;;21.44;100.00;99793.16;5054168;28;19998;-40
2022/07/10 11:17:47;;;;;;;;;;;;;;;20.97;100.00;99797.00;5053300;28;19995;-40
2022/07/10 11:20:12;;;;;;;;;;;;;;;20.65;100.00;99797.19;5053304;28;19916;-40
2022/07/10 11:22:49;;;;;;;;;;;;;;;19.40;100.00;99814.81;5054611;28;19923;-40
2022/07/10 11:25:17;;;;;;;;;;;;;;;20.54;100.00;99799.59;5053301;28;20710;-40
2022/07/10 11:27:55;;;;;;;;;;;;;;;21.24;100.00;99794.41;5053722;28;19939;-40
2022/07/10 11:30:21;;;;;;;;;;;;;;;20.52;100.00;99801.47;5052739;28;19923;-40
2022/07/10 11:32:47;;;;;;;;;;;;;;;20.62;100.00;99798.22;5056772;28;19916;-40
2022/07/10 11:35:13;;;;;;;;;;;;;;;19.99;100.00;99796.69;5057222;28;19960;-40
2022/07/10 11:37:51;;;;;;;;;;;;;;;20.55;100.00;99791.66;5056578;28;20008;-40
2022/07/10 11:40:19;;;;;;;;;;;;;;;19.95;100.00;99803.03;5058150;28;19916;-40
2022/07/10 11:42:47;;;;;;;;;;;;;;;21.06;100.00;99785.94;5058176;28;20321;-40
2022/07/10 11:45:22;;;;;;;;;;;;;;;20.46;100.00;99798.28;5058010;28;19965;-40
2022/07/10 11:47:47;;;;;;;;;;;;;;;20.31;100.00;99793.97;5058476;28;20019;-40
2022/07/10 11:50:12;;;;;;;;;;;;;;;20.17;100.00;99797.41;5057345;28;20333;-40
2022/07/10 11:52:38;;;;;;;;;;;;;;;20.54;100.00;99789.13;5057150;28;20387;-40
2022/07/10 11:55:19;;;;;;;;;;;;;;;20.61;100.00;99785.22;5056745;28;20392;-40
2022/07/10 11:57:48;;;;;;;;;;;;;;;19.58;100.00;99792.03;5057832;28;20011;-40
2022/07/10 12:00:29;;;;;;;;;;;;;;;20.00;100.00;99790.56;5056735;28;20645;-40
2022/07/10 12:02:55;;;;;;;;;;;;;;;20.31;100.00;99788.72;5057506;28;19923;-40
2022/07/10 12:05:33;;;;;;;;;;;;;;;20.04;100.00;99792.03;5055856;28;19916;-40
2022/07/10 12:07:59;;;;;;;;;;;;;;;20.62;100.00;99781.69;5056898;28;19917;-40
2022/07/10 12:10:27;;;;;;;;;;;;;;;20.63;100.00;99784.19;5056891;28;19923;-40
2022/07/10 12:12:53;;;;;;;;;;;;;;;21.29;100.00;99779.25;5056563;28;20016;-40
2022/07/10 12:15:30;;;;;;;;;;;;;;;21.30;100.00;99784.41;5056933;28;19920;-40
2022/07/10 12:17:56;;;;;;;;;;;;;;;20.98;100.00;99793.44;5056991;28;19927;-40
2022/07/10 12:20:21;;;;;;;;;;;;;;;21.38;100.00;99785.69;5056100;28;19917;-40
2022/07/10 12:22:46;;;;;;;;;;;;;;;20.94;100.00;99792.78;5056804;28;19924;-40
2022/07/10 12:25:11;;;;;;;;;;;;;;;19.71;100.00;99791.41;5056538;28;19917;-40
2022/07/10 12:27:40;;;;;;;;;;;;;;;19.41;100.00;99795.63;5055927;28;19994;-41
2022/07/10 12:30:05;;;;;;;;;;;;;;;19.77;100.00;99793.63;5056324;28;19923;-40
2022/07/10 12:32:31;;;;;;;;;;;;;;;19.41;100.00;99802.63;5056787;28;19916;-41
2022/07/10 12:34:58;;;;;;;;;;;;;;;19.85;100.00;99788.81;5056930;28;20289;-40
2022/07/10 12:37:23;;;;;;;;;;;;;;;19.35;100.00;99790.72;5056096;28;19916;-40
2022/07/10 12:39:50;;;;;;;;;;;;;;;19.80;100.00;99788.25;5054294;28;19913;-40